Monahans, Texas
Current Conditions -  °F | °C
As of 9:53 PM on Tuesday 21 Oct 2014 (Local Time) from KINK Reporting Station
Light Rain Light Rain  
Wind Chill: 65°   Ceiling: 4400
Heat Index: 65°   Visibility: 10mi
Dew Point: 63°   Wind: 5mph
Humidity: 93%   Direction: 140°SE
Pressure: 30.06"   Gusts: NA
Location:  31.6°N, 102.89°W
Report Text: KINK 220253Z AUTO 14004KT 10SM -RA OVC044 18/17 A3006 RMK AO2 RAB46 SLP147 P0001 60019 T01830172 53010
Loading
Personal Weather Stations






























Interactive Weather Map
Tropical Storm Tracking
New forecast layout! Learn more

10-Day Weather Forecast

Advertisements
Track Severe Weather on mobile